sensor_id;sensor_type;location;lat;lon;timestamp;temperature;humidity
55135;DHT22;41031;44.750;11.308;2023-04-07T00:01:51;7.30;66.30
55135;DHT22;41031;44.750;11.308;2023-04-07T00:04:18;7.30;66.60
55135;DHT22;41031;44.750;11.308;2023-04-07T00:06:45;7.30;67.00
55135;DHT22;41031;44.750;11.308;2023-04-07T00:09:12;7.30;67.30
55135;DHT22;41031;44.750;11.308;2023-04-07T00:11:39;7.20;67.40
55135;DHT22;41031;44.750;11.308;2023-04-07T00:14:06;7.20;67.70
55135;DHT22;41031;44.750;11.308;2023-04-07T00:16:33;7.10;67.50
55135;DHT22;41031;44.750;11.308;2023-04-07T00:19:01;7.10;67.20
55135;DHT22;41031;44.750;11.308;2023-04-07T00:21:27;7.00;66.80
55135;DHT22;41031;44.750;11.308;2023-04-07T00:23:54;7.00;66.40
55135;DHT22;41031;44.750;11.308;2023-04-07T00:26:22;7.00;65.90
55135;DHT22;41031;44.750;11.308;2023-04-07T00:28:51;7.00;65.70
55135;DHT22;41031;44.750;11.308;2023-04-07T00:31:18;7.00;65.70
55135;DHT22;41031;44.750;11.308;2023-04-07T00:33:45;7.00;66.10
55135;DHT22;41031;44.750;11.308;2023-04-07T00:36:14;7.00;66.20
55135;DHT22;41031;44.750;11.308;2023-04-07T00:38:41;7.00;66.50
55135;DHT22;41031;44.750;11.308;2023-04-07T00:41:08;7.00;66.50
55135;DHT22;41031;44.750;11.308;2023-04-07T00:43:35;7.00;67.10
55135;DHT22;41031;44.750;11.308;2023-04-07T00:46:02;7.00;66.20
55135;DHT22;41031;44.750;11.308;2023-04-07T00:48:29;7.00;66.40
55135;DHT22;41031;44.750;11.308;2023-04-07T00:50:56;7.00;66.40
55135;DHT22;41031;44.750;11.308;2023-04-07T00:53:24;7.00;66.30
55135;DHT22;41031;44.750;11.308;2023-04-07T00:55:51;7.00;66.30
55135;DHT22;41031;44.750;11.308;2023-04-07T00:58:18;7.00;66.40
55135;DHT22;41031;44.750;11.308;2023-04-07T01:00:53;7.00;66.80
55135;DHT22;41031;44.750;11.308;2023-04-07T01:03:32;7.00;67.10
55135;DHT22;41031;44.750;11.308;2023-04-07T01:06:02;7.00;67.50
55135;DHT22;41031;44.750;11.308;2023-04-07T01:08:58;7.00;67.90
55135;DHT22;41031;44.750;11.308;2023-04-07T01:11:40;6.90;68.20
55135;DHT22;41031;44.750;11.308;2023-04-07T01:14:17;6.90;68.30
55135;DHT22;41031;44.750;11.308;2023-04-07T01:16:54;6.80;68.50
55135;DHT22;41031;44.750;11.308;2023-04-07T01:19:33;6.80;68.50
55135;DHT22;41031;44.750;11.308;2023-04-07T01:22:15;6.80;68.50
55135;DHT22;41031;44.750;11.308;2023-04-07T01:30:15;6.70;67.80
55135;DHT22;41031;44.750;11.308;2023-04-07T01:32:46;6.70;67.50
55135;DHT22;41031;44.750;11.308;2023-04-07T01:35:17;6.70;67.20
55135;DHT22;41031;44.750;11.308;2023-04-07T01:37:45;6.70;67.10
55135;DHT22;41031;44.750;11.308;2023-04-07T01:40:15;6.70;67.30
55135;DHT22;41031;44.750;11.308;2023-04-07T01:42:43;6.70;67.20
55135;DHT22;41031;44.750;11.308;2023-04-07T01:53:29;6.60;66.90
55135;DHT22;41031;44.750;11.308;2023-04-07T01:55:56;6.60;66.90
55135;DHT22;41031;44.750;11.308;2023-04-07T01:58:23;6.50;67.00
55135;DHT22;41031;44.750;11.308;2023-04-07T02:00:51;6.50;67.10
55135;DHT22;41031;44.750;11.308;2023-04-07T02:03:31;6.50;67.20
55135;DHT22;41031;44.750;11.308;2023-04-07T02:06:06;6.50;67.20
55135;DHT22;41031;44.750;11.308;2023-04-07T02:08:35;6.40;67.00
55135;DHT22;41031;44.750;11.308;2023-04-07T02:11:05;6.40;67.10
55135;DHT22;41031;44.750;11.308;2023-04-07T02:13:36;6.40;66.90
55135;DHT22;41031;44.750;11.308;2023-04-07T02:16:05;6.40;67.00
55135;DHT22;41031;44.750;11.308;2023-04-07T02:18:33;6.40;67.10
55135;DHT22;41031;44.750;11.308;2023-04-07T02:21:01;6.40;67.50
55135;DHT22;41031;44.750;11.308;2023-04-07T02:23:29;6.30;67.90
55135;DHT22;41031;44.750;11.308;2023-04-07T02:25:56;6.40;68.10
55135;DHT22;41031;44.750;11.308;2023-04-07T02:28:23;6.30;68.20
55135;DHT22;41031;44.750;11.308;2023-04-07T02:30:51;6.30;68.40
55135;DHT22;41031;44.750;11.308;2023-04-07T02:33:18;6.30;68.30
55135;DHT22;41031;44.750;11.308;2023-04-07T02:35:45;6.20;68.30
55135;DHT22;41031;44.750;11.308;2023-04-07T02:38:12;6.20;68.60
55135;DHT22;41031;44.750;11.308;2023-04-07T02:40:39;6.20;68.90
55135;DHT22;41031;44.750;11.308;2023-04-07T02:43:06;6.20;69.00
55135;DHT22;41031;44.750;11.308;2023-04-07T02:45:33;6.20;69.20
55135;DHT22;41031;44.750;11.308;2023-04-07T02:47:59;6.10;69.30
55135;DHT22;41031;44.750;11.308;2023-04-07T02:50:27;6.10;69.10
55135;DHT22;41031;44.750;11.308;2023-04-07T02:52:54;6.10;69.40
55135;DHT22;41031;44.750;11.308;2023-04-07T02:55:22;6.20;69.70
55135;DHT22;41031;44.750;11.308;2023-04-07T02:57:49;6.10;69.70
55135;DHT22;41031;44.750;11.308;2023-04-07T03:00:30;6.20;69.70
55135;DHT22;41031;44.750;11.308;2023-04-07T03:03:08;6.10;69.70
55135;DHT22;41031;44.750;11.308;2023-04-07T03:05:39;6.10;69.40
55135;DHT22;41031;44.750;11.308;2023-04-07T03:08:08;6.10;69.10
55135;DHT22;41031;44.750;11.308;2023-04-07T03:10:38;6.10;68.90
55135;DHT22;41031;44.750;11.308;2023-04-07T03:13:06;6.10;68.70
55135;DHT22;41031;44.750;11.308;2023-04-07T03:15:35;6.10;68.60
55135;DHT22;41031;44.750;11.308;2023-04-07T03:18:02;6.10;68.60
55135;DHT22;41031;44.750;11.308;2023-04-07T03:20:30;6.00;68.60
55135;DHT22;41031;44.750;11.308;2023-04-07T03:23:02;6.00;68.60
55135;DHT22;41031;44.750;11.308;2023-04-07T03:25:29;6.00;68.50
55135;DHT22;41031;44.750;11.308;2023-04-07T03:27:58;6.00;68.40
55135;DHT22;41031;44.750;11.308;2023-04-07T03:30:29;6.00;68.40
55135;DHT22;41031;44.750;11.308;2023-04-07T03:32:56;5.90;68.50
55135;DHT22;41031;44.750;11.308;2023-04-07T03:35:23;5.90;68.60
55135;DHT22;41031;44.750;11.308;2023-04-07T03:37:50;5.90;68.60
55135;DHT22;41031;44.750;11.308;2023-04-07T03:40:18;5.90;68.40
55135;DHT22;41031;44.750;11.308;2023-04-07T03:42:46;5.80;68.20
55135;DHT22;41031;44.750;11.308;2023-04-07T03:45:15;5.80;68.20
55135;DHT22;41031;44.750;11.308;2023-04-07T03:47:48;5.70;68.70
55135;DHT22;41031;44.750;11.308;2023-04-07T03:50:16;5.60;69.90
55135;DHT22;41031;44.750;11.308;2023-04-07T03:52:53;5.60;69.80
55135;DHT22;41031;44.750;11.308;2023-04-07T03:55:24;5.50;70.10
55135;DHT22;41031;44.750;11.308;2023-04-07T03:57:56;5.40;70.40
55135;DHT22;41031;44.750;11.308;2023-04-07T04:00:27;5.30;70.90
55135;DHT22;41031;44.750;11.308;2023-04-07T04:03:05;5.30;71.00
55135;DHT22;41031;44.750;11.308;2023-04-07T04:05:34;5.20;71.00
55135;DHT22;41031;44.750;11.308;2023-04-07T04:08:02;5.20;71.30
55135;DHT22;41031;44.750;11.308;2023-04-07T04:10:31;5.20;71.60
55135;DHT22;41031;44.750;11.308;2023-04-07T04:12:58;5.10;72.10
55135;DHT22;41031;44.750;11.308;2023-04-07T04:15:29;5.10;72.30
55135;DHT22;41031;44.750;11.308;2023-04-07T04:17:58;5.10;72.20
55135;DHT22;41031;44.750;11.308;2023-04-07T04:20:25;5.10;72.20
55135;DHT22;41031;44.750;11.308;2023-04-07T04:22:52;5.00;72.30
55135;DHT22;41031;44.750;11.308;2023-04-07T04:25:20;5.00;72.50
55135;DHT22;41031;44.750;11.308;2023-04-07T04:27:52;5.00;72.60
55135;DHT22;41031;44.750;11.308;2023-04-07T04:30:22;4.90;72.70
55135;DHT22;41031;44.750;11.308;2023-04-07T04:33:01;4.90;72.90
55135;DHT22;41031;44.750;11.308;2023-04-07T04:35:49;4.80;73.10
55135;DHT22;41031;44.750;11.308;2023-04-07T04:38:18;4.80;73.50
55135;DHT22;41031;44.750;11.308;2023-04-07T04:40:52;4.80;73.90
55135;DHT22;41031;44.750;11.308;2023-04-07T04:43:24;4.70;74.30
55135;DHT22;41031;44.750;11.308;2023-04-07T04:45:52;4.70;74.60
55135;DHT22;41031;44.750;11.308;2023-04-07T04:48:22;4.70;74.90
55135;DHT22;41031;44.750;11.308;2023-04-07T04:50:50;4.60;75.20
55135;DHT22;41031;44.750;11.308;2023-04-07T04:53:17;4.60;75.30
55135;DHT22;41031;44.750;11.308;2023-04-07T04:55:49;4.60;75.50
55135;DHT22;41031;44.750;11.308;2023-04-07T04:58:22;4.60;75.70
55135;DHT22;41031;44.750;11.308;2023-04-07T05:00:53;4.60;75.90
55135;DHT22;41031;44.750;11.308;2023-04-07T05:03:39;4.60;76.00
55135;DHT22;41031;44.750;11.308;2023-04-07T05:06:15;4.60;76.20
55135;DHT22;41031;44.750;11.308;2023-04-07T05:08:44;4.60;76.40
55135;DHT22;41031;44.750;11.308;2023-04-07T05:11:12;4.60;76.60
55135;DHT22;41031;44.750;11.308;2023-04-07T05:13:41;4.70;76.80
55135;DHT22;41031;44.750;11.308;2023-04-07T05:16:08;4.70;76.90
55135;DHT22;41031;44.750;11.308;2023-04-07T05:18:36;4.70;76.90
55135;DHT22;41031;44.750;11.308;2023-04-07T05:21:04;4.80;76.90
55135;DHT22;41031;44.750;11.308;2023-04-07T05:23:34;4.90;76.80
55135;DHT22;41031;44.750;11.308;2023-04-07T05:26:03;5.00;76.80
55135;DHT22;41031;44.750;11.308;2023-04-07T05:28:30;5.10;76.50
55135;DHT22;41031;44.750;11.308;2023-04-07T05:31:02;5.20;76.40
55135;DHT22;41031;44.750;11.308;2023-04-07T05:33:34;5.20;76.20
55135;DHT22;41031;44.750;11.308;2023-04-07T05:36:02;5.20;76.00
55135;DHT22;41031;44.750;11.308;2023-04-07T05:38:31;5.20;75.80
55135;DHT22;41031;44.750;11.308;2023-04-07T05:41:05;5.20;75.60
55135;DHT22;41031;44.750;11.308;2023-04-07T05:43:34;5.20;75.50
55135;DHT22;41031;44.750;11.308;2023-04-07T05:46:01;5.20;75.50
55135;DHT22;41031;44.750;11.308;2023-04-07T05:48:30;5.30;75.80
55135;DHT22;41031;44.750;11.308;2023-04-07T05:50:57;5.30;76.00
55135;DHT22;41031;44.750;11.308;2023-04-07T05:53:24;5.30;76.10
55135;DHT22;41031;44.750;11.308;2023-04-07T05:55:52;5.40;76.20
55135;DHT22;41031;44.750;11.308;2023-04-07T05:58:35;5.40;76.20
55135;DHT22;41031;44.750;11.308;2023-04-07T06:01:03;5.50;76.40
55135;DHT22;41031;44.750;11.308;2023-04-07T06:03:30;5.60;76.90
55135;DHT22;41031;44.750;11.308;2023-04-07T06:06:08;5.80;76.70
55135;DHT22;41031;44.750;11.308;2023-04-07T06:08:35;6.00;75.90
55135;DHT22;41031;44.750;11.308;2023-04-07T06:11:02;6.20;75.60
55135;DHT22;41031;44.750;11.308;2023-04-07T06:13:29;6.20;75.50
55135;DHT22;41031;44.750;11.308;2023-04-07T06:15:56;6.30;75.50
55135;DHT22;41031;44.750;11.308;2023-04-07T06:18:24;6.30;75.60
55135;DHT22;41031;44.750;11.308;2023-04-07T06:20:51;6.40;75.80
55135;DHT22;41031;44.750;11.308;2023-04-07T06:23:18;6.50;76.10
55135;DHT22;41031;44.750;11.308;2023-04-07T06:25:45;6.50;76.20
55135;DHT22;41031;44.750;11.308;2023-04-07T06:28:13;6.50;76.30
55135;DHT22;41031;44.750;11.308;2023-04-07T06:30:40;6.60;76.30
55135;DHT22;41031;44.750;11.308;2023-04-07T06:33:10;6.70;76.50
55135;DHT22;41031;44.750;11.308;2023-04-07T06:35:39;6.80;76.90
55135;DHT22;41031;44.750;11.308;2023-04-07T06:38:07;6.90;77.20
55135;DHT22;41031;44.750;11.308;2023-04-07T06:40:34;7.00;77.30
55135;DHT22;41031;44.750;11.308;2023-04-07T06:43:01;7.20;76.50
55135;DHT22;41031;44.750;11.308;2023-04-07T06:45:56;7.40;75.50
55135;DHT22;41031;44.750;11.308;2023-04-07T06:48:23;7.60;74.20
55135;DHT22;41031;44.750;11.308;2023-04-07T06:50:50;7.80;73.40
55135;DHT22;41031;44.750;11.308;2023-04-07T06:53:17;7.90;72.70
55135;DHT22;41031;44.750;11.308;2023-04-07T06:55:44;8.10;72.40
55135;DHT22;41031;44.750;11.308;2023-04-07T06:58:12;8.30;72.70
55135;DHT22;41031;44.750;11.308;2023-04-07T07:00:39;8.40;72.90
55135;DHT22;41031;44.750;11.308;2023-04-07T07:03:06;8.60;72.80
55135;DHT22;41031;44.750;11.308;2023-04-07T07:05:33;8.80;72.80
55135;DHT22;41031;44.750;11.308;2023-04-07T07:08:00;9.00;72.50
55135;DHT22;41031;44.750;11.308;2023-04-07T07:10:27;9.10;71.80
55135;DHT22;41031;44.750;11.308;2023-04-07T07:12:54;9.30;71.20
55135;DHT22;41031;44.750;11.308;2023-04-07T07:15:21;9.40;70.40
55135;DHT22;41031;44.750;11.308;2023-04-07T07:17:48;9.60;70.20
55135;DHT22;41031;44.750;11.308;2023-04-07T07:20:15;9.80;70.20
55135;DHT22;41031;44.750;11.308;2023-04-07T07:22:42;10.00;69.70
55135;DHT22;41031;44.750;11.308;2023-04-07T07:25:09;10.10;69.30
55135;DHT22;41031;44.750;11.308;2023-04-07T07:27:36;10.30;69.10
55135;DHT22;41031;44.750;11.308;2023-04-07T07:30:03;10.60;68.50
55135;DHT22;41031;44.750;11.308;2023-04-07T07:32:31;10.80;67.80
55135;DHT22;41031;44.750;11.308;2023-04-07T07:34:58;11.00;66.90
55135;DHT22;41031;44.750;11.308;2023-04-07T07:37:25;11.20;66.10
55135;DHT22;41031;44.750;11.308;2023-04-07T07:39:54;11.40;65.40
55135;DHT22;41031;44.750;11.308;2023-04-07T07:42:22;11.60;64.40
55135;DHT22;41031;44.750;11.308;2023-04-07T07:44:49;11.80;63.00
55135;DHT22;41031;44.750;11.308;2023-04-07T07:47:16;12.00;62.30
55135;DHT22;41031;44.750;11.308;2023-04-07T07:49:43;12.20;62.10
55135;DHT22;41031;44.750;11.308;2023-04-07T07:52:10;12.40;61.80
55135;DHT22;41031;44.750;11.308;2023-04-07T07:54:37;12.50;61.30
55135;DHT22;41031;44.750;11.308;2023-04-07T07:57:04;12.70;60.10
55135;DHT22;41031;44.750;11.308;2023-04-07T07:59:32;12.80;58.80
55135;DHT22;41031;44.750;11.308;2023-04-07T08:01:59;13.00;58.40
55135;DHT22;41031;44.750;11.308;2023-04-07T08:04:26;13.20;57.90
55135;DHT22;41031;44.750;11.308;2023-04-07T08:06:53;13.30;57.50
55135;DHT22;41031;44.750;11.308;2023-04-07T08:09:20;13.50;57.90
55135;DHT22;41031;44.750;11.308;2023-04-07T08:11:48;13.70;56.70
55135;DHT22;41031;44.750;11.308;2023-04-07T08:14:14;13.70;56.10
55135;DHT22;41031;44.750;11.308;2023-04-07T08:16:42;13.70;55.20
55135;DHT22;41031;44.750;11.308;2023-04-07T08:19:10;13.80;54.20
55135;DHT22;41031;44.750;11.308;2023-04-07T08:21:37;13.80;53.60
55135;DHT22;41031;44.750;11.308;2023-04-07T08:24:05;13.80;53.70
55135;DHT22;41031;44.750;11.308;2023-04-07T08:26:32;13.90;54.30
55135;DHT22;41031;44.750;11.308;2023-04-07T08:28:59;14.10;55.00
55135;DHT22;41031;44.750;11.308;2023-04-07T08:31:26;14.30;52.40
55135;DHT22;41031;44.750;11.308;2023-04-07T08:33:54;14.30;52.60
55135;DHT22;41031;44.750;11.308;2023-04-07T08:36:24;14.40;51.50
55135;DHT22;41031;44.750;11.308;2023-04-07T08:38:52;14.40;51.60
55135;DHT22;41031;44.750;11.308;2023-04-07T08:41:26;14.50;52.70
55135;DHT22;41031;44.750;11.308;2023-04-07T08:43:56;14.60;53.20
55135;DHT22;41031;44.750;11.308;2023-04-07T08:46:24;14.80;52.50
55135;DHT22;41031;44.750;11.308;2023-04-07T08:48:52;15.00;48.70
55135;DHT22;41031;44.750;11.308;2023-04-07T08:51:31;15.10;48.50
55135;DHT22;41031;44.750;11.308;2023-04-07T08:54:10;15.20;49.20
55135;DHT22;41031;44.750;11.308;2023-04-07T08:56:38;15.40;48.90
55135;DHT22;41031;44.750;11.308;2023-04-07T08:59:09;15.50;48.40
55135;DHT22;41031;44.750;11.308;2023-04-07T09:01:36;15.60;49.20
55135;DHT22;41031;44.750;11.308;2023-04-07T09:04:05;15.70;49.00
55135;DHT22;41031;44.750;11.308;2023-04-07T09:06:36;15.80;48.40
55135;DHT22;41031;44.750;11.308;2023-04-07T09:09:03;15.90;47.20
55135;DHT22;41031;44.750;11.308;2023-04-07T09:11:38;16.00;47.10
55135;DHT22;41031;44.750;11.308;2023-04-07T09:14:06;16.10;47.20
55135;DHT22;41031;44.750;11.308;2023-04-07T09:16:34;16.40;47.50
55135;DHT22;41031;44.750;11.308;2023-04-07T09:19:01;16.50;46.60
55135;DHT22;41031;44.750;11.308;2023-04-07T09:21:49;16.70;46.40
55135;DHT22;41031;44.750;11.308;2023-04-07T09:24:29;16.80;45.40
55135;DHT22;41031;44.750;11.308;2023-04-07T09:27:15;16.90;44.60
55135;DHT22;41031;44.750;11.308;2023-04-07T09:29:44;16.90;46.00
55135;DHT22;41031;44.750;11.308;2023-04-07T09:32:12;16.90;45.50
55135;DHT22;41031;44.750;11.308;2023-04-07T09:34:58;16.90;45.50
55135;DHT22;41031;44.750;11.308;2023-04-07T09:37:25;16.90;44.10
55135;DHT22;41031;44.750;11.308;2023-04-07T09:39:52;16.90;43.70
55135;DHT22;41031;44.750;11.308;2023-04-07T09:42:20;16.80;45.00
55135;DHT22;41031;44.750;11.308;2023-04-07T09:44:47;16.80;45.20
55135;DHT22;41031;44.750;11.308;2023-04-07T09:47:14;16.90;45.40
55135;DHT22;41031;44.750;11.308;2023-04-07T09:49:52;17.00;45.80
55135;DHT22;41031;44.750;11.308;2023-04-07T09:52:24;17.10;45.50
55135;DHT22;41031;44.750;11.308;2023-04-07T09:54:52;17.20;45.00
55135;DHT22;41031;44.750;11.308;2023-04-07T09:57:21;17.30;44.50
55135;DHT22;41031;44.750;11.308;2023-04-07T09:59:49;17.40;44.50
55135;DHT22;41031;44.750;11.308;2023-04-07T10:02:17;17.50;45.50
55135;DHT22;41031;44.750;11.308;2023-04-07T10:04:44;17.60;44.70
55135;DHT22;41031;44.750;11.308;2023-04-07T10:07:11;17.80;45.40
55135;DHT22;41031;44.750;11.308;2023-04-07T10:09:39;18.10;44.30
55135;DHT22;41031;44.750;11.308;2023-04-07T10:12:06;18.40;44.00
55135;DHT22;41031;44.750;11.308;2023-04-07T10:14:34;18.70;43.70
55135;DHT22;41031;44.750;11.308;2023-04-07T10:17:04;19.10;43.10
55135;DHT22;41031;44.750;11.308;2023-04-07T10:19:31;19.30;41.80
55135;DHT22;41031;44.750;11.308;2023-04-07T10:22:02;19.30;41.20
55135;DHT22;41031;44.750;11.308;2023-04-07T10:27:04;19.10;39.50
55135;DHT22;41031;44.750;11.308;2023-04-07T10:29:38;19.00;40.10
55135;DHT22;41031;44.750;11.308;2023-04-07T10:32:06;19.00;40.10
55135;DHT22;41031;44.750;11.308;2023-04-07T10:37:17;18.70;39.50
55135;DHT22;41031;44.750;11.308;2023-04-07T10:39:48;18.50;39.60
55135;DHT22;41031;44.750;11.308;2023-04-07T10:45:08;18.30;40.90
55135;DHT22;41031;44.750;11.308;2023-04-07T10:50:26;18.60;40.90
55135;DHT22;41031;44.750;11.308;2023-04-07T10:53:07;18.80;39.10
55135;DHT22;41031;44.750;11.308;2023-04-07T10:55:37;19.00;38.40
55135;DHT22;41031;44.750;11.308;2023-04-07T10:58:16;19.10;36.90
55135;DHT22;41031;44.750;11.308;2023-04-07T11:03:28;19.50;37.60
55135;DHT22;41031;44.750;11.308;2023-04-07T11:06:06;19.60;37.40
55135;DHT22;41031;44.750;11.308;2023-04-07T11:08:35;19.60;33.60
55135;DHT22;41031;44.750;11.308;2023-04-07T11:11:03;19.60;33.90
55135;DHT22;41031;44.750;11.308;2023-04-07T11:16:11;19.70;35.60
55135;DHT22;41031;44.750;11.308;2023-04-07T11:18:39;19.80;36.00
55135;DHT22;41031;44.750;11.308;2023-04-07T11:21:07;19.90;35.40
55135;DHT22;41031;44.750;11.308;2023-04-07T11:23:42;19.90;33.00
55135;DHT22;41031;44.750;11.308;2023-04-07T11:26:11;19.90;35.30
55135;DHT22;41031;44.750;11.308;2023-04-07T11:28:51;19.90;35.80
55135;DHT22;41031;44.750;11.308;2023-04-07T11:31:26;19.90;33.80
55135;DHT22;41031;44.750;11.308;2023-04-07T11:33:56;19.80;35.90
55135;DHT22;41031;44.750;11.308;2023-04-07T11:36:34;19.80;36.20
55135;DHT22;41031;44.750;11.308;2023-04-07T11:39:01;19.80;34.80
55135;DHT22;41031;44.750;11.308;2023-04-07T11:41:30;19.70;37.30
55135;DHT22;41031;44.750;11.308;2023-04-07T11:44:11;19.70;38.10
55135;DHT22;41031;44.750;11.308;2023-04-07T11:46:55;19.80;39.50
55135;DHT22;41031;44.750;11.308;2023-04-07T11:49:24;19.80;38.20
55135;DHT22;41031;44.750;11.308;2023-04-07T11:52:11;19.80;35.90
55135;DHT22;41031;44.750;11.308;2023-04-07T11:54:43;19.60;35.60
55135;DHT22;41031;44.750;11.308;2023-04-07T11:57:13;19.70;36.50
55135;DHT22;41031;44.750;11.308;2023-04-07T11:59:40;19.70;36.30
55135;DHT22;41031;44.750;11.308;2023-04-07T12:02:08;19.60;34.80
55135;DHT22;41031;44.750;11.308;2023-04-07T12:04:35;19.50;37.00
55135;DHT22;41031;44.750;11.308;2023-04-07T12:07:07;19.40;37.50
55135;DHT22;41031;44.750;11.308;2023-04-07T12:09:34;19.40;38.20
55135;DHT22;41031;44.750;11.308;2023-04-07T12:12:03;19.40;39.20
55135;DHT22;41031;44.750;11.308;2023-04-07T12:14:34;19.50;38.40
55135;DHT22;41031;44.750;11.308;2023-04-07T12:17:02;19.70;38.10
55135;DHT22;41031;44.750;11.308;2023-04-07T12:19:31;19.80;37.00
55135;DHT22;41031;44.750;11.308;2023-04-07T12:22:02;19.90;33.90
55135;DHT22;41031;44.750;11.308;2023-04-07T12:24:29;20.00;34.50
55135;DHT22;41031;44.750;11.308;2023-04-07T12:26:58;20.10;36.10
55135;DHT22;41031;44.750;11.308;2023-04-07T12:29:25;20.10;36.00
55135;DHT22;41031;44.750;11.308;2023-04-07T12:31:52;20.20;36.30
55135;DHT22;41031;44.750;11.308;2023-04-07T12:34:19;20.20;34.00
55135;DHT22;41031;44.750;11.308;2023-04-07T12:36:46;20.10;34.00
55135;DHT22;41031;44.750;11.308;2023-04-07T12:39:15;19.90;34.70
55135;DHT22;41031;44.750;11.308;2023-04-07T12:41:43;19.70;32.80
55135;DHT22;41031;44.750;11.308;2023-04-07T12:44:11;19.50;35.30
55135;DHT22;41031;44.750;11.308;2023-04-07T12:46:38;19.30;37.00
55135;DHT22;41031;44.750;11.308;2023-04-07T12:49:05;19.10;37.30
55135;DHT22;41031;44.750;11.308;2023-04-07T12:51:32;19.00;37.30
55135;DHT22;41031;44.750;11.308;2023-04-07T12:54:00;18.90;38.10
55135;DHT22;41031;44.750;11.308;2023-04-07T12:56:27;18.80;37.70
55135;DHT22;41031;44.750;11.308;2023-04-07T12:58:54;18.70;37.90
55135;DHT22;41031;44.750;11.308;2023-04-07T13:01:21;18.70;39.00
55135;DHT22;41031;44.750;11.308;2023-04-07T13:03:48;18.60;37.70
55135;DHT22;41031;44.750;11.308;2023-04-07T13:06:16;18.50;37.70
55135;DHT22;41031;44.750;11.308;2023-04-07T13:08:43;18.40;37.90
55135;DHT22;41031;44.750;11.308;2023-04-07T13:11:10;18.40;37.40
55135;DHT22;41031;44.750;11.308;2023-04-07T13:13:37;18.30;37.00
55135;DHT22;41031;44.750;11.308;2023-04-07T13:16:04;18.30;38.40
55135;DHT22;41031;44.750;11.308;2023-04-07T13:18:31;18.20;38.50
55135;DHT22;41031;44.750;11.308;2023-04-07T13:20:58;18.20;38.80
55135;DHT22;41031;44.750;11.308;2023-04-07T13:23:45;18.20;38.80
55135;DHT22;41031;44.750;11.308;2023-04-07T13:26:12;18.20;38.80
55135;DHT22;41031;44.750;11.308;2023-04-07T13:28:39;18.20;39.20
55135;DHT22;41031;44.750;11.308;2023-04-07T13:31:07;18.20;38.30
55135;DHT22;41031;44.750;11.308;2023-04-07T13:33:34;18.20;39.20
55135;DHT22;41031;44.750;11.308;2023-04-07T13:36:01;18.30;39.30
55135;DHT22;41031;44.750;11.308;2023-04-07T13:38:28;18.30;38.00
55135;DHT22;41031;44.750;11.308;2023-04-07T13:40:55;18.40;39.70
55135;DHT22;41031;44.750;11.308;2023-04-07T13:43:22;18.50;39.20
55135;DHT22;41031;44.750;11.308;2023-04-07T13:45:49;18.70;40.60
55135;DHT22;41031;44.750;11.308;2023-04-07T13:48:16;18.80;38.40
55135;DHT22;41031;44.750;11.308;2023-04-07T13:50:43;19.00;38.30
55135;DHT22;41031;44.750;11.308;2023-04-07T13:53:10;19.10;38.80
55135;DHT22;41031;44.750;11.308;2023-04-07T13:55:37;19.30;39.00
55135;DHT22;41031;44.750;11.308;2023-04-07T13:58:05;19.40;40.20
55135;DHT22;41031;44.750;11.308;2023-04-07T14:00:32;19.60;37.60
55135;DHT22;41031;44.750;11.308;2023-04-07T14:03:01;19.60;37.40
55135;DHT22;41031;44.750;11.308;2023-04-07T14:05:30;19.60;36.00
55135;DHT22;41031;44.750;11.308;2023-04-07T14:07:57;19.50;38.70
55135;DHT22;41031;44.750;11.308;2023-04-07T14:10:24;19.60;37.60
55135;DHT22;41031;44.750;11.308;2023-04-07T14:12:51;19.60;37.20
55135;DHT22;41031;44.750;11.308;2023-04-07T14:15:18;19.60;37.60
55135;DHT22;41031;44.750;11.308;2023-04-07T14:17:45;19.60;38.10
55135;DHT22;41031;44.750;11.308;2023-04-07T14:20:12;19.60;38.30
55135;DHT22;41031;44.750;11.308;2023-04-07T14:22:39;19.60;38.40
55135;DHT22;41031;44.750;11.308;2023-04-07T14:25:06;19.60;38.20
55135;DHT22;41031;44.750;11.308;2023-04-07T14:27:33;19.60;35.60
55135;DHT22;41031;44.750;11.308;2023-04-07T14:30:01;19.40;36.40
55135;DHT22;41031;44.750;11.308;2023-04-07T14:32:28;19.30;37.50
55135;DHT22;41031;44.750;11.308;2023-04-07T14:34:55;19.30;36.70
55135;DHT22;41031;44.750;11.308;2023-04-07T14:37:24;19.20;38.00
55135;DHT22;41031;44.750;11.308;2023-04-07T14:39:54;19.30;36.60
55135;DHT22;41031;44.750;11.308;2023-04-07T14:42:28;19.30;37.90
55135;DHT22;41031;44.750;11.308;2023-04-07T14:44:59;19.30;40.90
55135;DHT22;41031;44.750;11.308;2023-04-07T14:47:26;19.40;41.70
55135;DHT22;41031;44.750;11.308;2023-04-07T14:49:53;19.40;41.50
55135;DHT22;41031;44.750;11.308;2023-04-07T14:52:21;19.20;40.70
55135;DHT22;41031;44.750;11.308;2023-04-07T14:54:48;19.10;42.90
55135;DHT22;41031;44.750;11.308;2023-04-07T14:57:15;18.90;44.00
55135;DHT22;41031;44.750;11.308;2023-04-07T14:59:43;18.70;44.10
55135;DHT22;41031;44.750;11.308;2023-04-07T15:02:10;18.50;45.20
55135;DHT22;41031;44.750;11.308;2023-04-07T15:04:37;18.40;46.10
55135;DHT22;41031;44.750;11.308;2023-04-07T15:07:04;18.30;47.10
55135;DHT22;41031;44.750;11.308;2023-04-07T15:09:31;18.10;47.30
55135;DHT22;41031;44.750;11.308;2023-04-07T15:11:58;18.00;47.30
55135;DHT22;41031;44.750;11.308;2023-04-07T15:14:26;18.00;46.80
55135;DHT22;41031;44.750;11.308;2023-04-07T15:16:53;17.90;46.90
55135;DHT22;41031;44.750;11.308;2023-04-07T15:19:20;17.80;47.60
55135;DHT22;41031;44.750;11.308;2023-04-07T15:21:47;17.70;48.60
55135;DHT22;41031;44.750;11.308;2023-04-07T15:24:14;17.60;48.60
55135;DHT22;41031;44.750;11.308;2023-04-07T15:26:42;17.50;48.50
55135;DHT22;41031;44.750;11.308;2023-04-07T15:29:09;17.40;48.80
55135;DHT22;41031;44.750;11.308;2023-04-07T15:31:36;17.30;48.70
55135;DHT22;41031;44.750;11.308;2023-04-07T15:34:03;17.20;48.40
55135;DHT22;41031;44.750;11.308;2023-04-07T15:36:31;17.10;48.50
55135;DHT22;41031;44.750;11.308;2023-04-07T15:39:02;17.10;48.90
55135;DHT22;41031;44.750;11.308;2023-04-07T15:41:30;17.00;49.60
55135;DHT22;41031;44.750;11.308;2023-04-07T15:44:01;16.90;49.50
55135;DHT22;41031;44.750;11.308;2023-04-07T15:46:28;16.80;49.50
55135;DHT22;41031;44.750;11.308;2023-04-07T15:48:58;16.80;50.00
55135;DHT22;41031;44.750;11.308;2023-04-07T15:51:25;16.70;50.20
55135;DHT22;41031;44.750;11.308;2023-04-07T15:53:55;16.70;50.70
55135;DHT22;41031;44.750;11.308;2023-04-07T15:56:22;16.60;50.70
55135;DHT22;41031;44.750;11.308;2023-04-07T15:58:50;16.50;50.30
55135;DHT22;41031;44.750;11.308;2023-04-07T16:01:18;16.50;50.30
55135;DHT22;41031;44.750;11.308;2023-04-07T16:03:45;16.40;50.30
55135;DHT22;41031;44.750;11.308;2023-04-07T16:06:13;16.40;50.20